Data for 05/05/2010

Time Sea-Level Adjusted Pressure Absolute Pressure Temperature Relative Humidity Dew Point   
(mb) (inHg) (mb) (inHg) (C) (F) (%) (C) (F)
00:05 1020 30.12 850 25.1 -0.6 30.8 55 -8.6 16.5
00:10 1020 30.12 850 25.1 -0.9 30.4 56 -8.7 16.4
00:15 1020 30.12 850 25.1 -0.8 30.6 53 -9.3 15.3
00:20 1020 30.12 850 25.1 -0.6 30.9 52 -9.3 15.3
00:25 1020 30.12 850 25.1 -0.5 31.1 51 -9.5 14.9
00:30 1020 30.12 850 25.1 -0.4 31.3 51 -9.4 15.1
00:35 1020 30.12 850 25.1 -0.4 31.3 50 -9.6 14.7
00:40 1020 30.12 850 25.1 -0.3 31.5 48 -10 14
00:45 1020 30.12 850 25.1 -0.2 31.7 48 -10 14.1
00:50 1020 30.12 850 25.1 -0.3 31.5 48 -10.1 13.8
00:55 1020 30.12 850 25.1 -0.4 31.2 48 -10.2 13.7
01:00 1020 30.12 850 25.1 -0.6 30.9 49 -10.1 13.8
01:05 1020 30.12 850 25.1 -0.6 30.9 48 -10.2 13.6
01:10 1020 30.12 850 25.1 -0.6 30.9 49 -10.1 13.8
01:15 1020 30.12 850 25.1 -0.7 30.8 49 -10.1 13.8
01:20 1020 30.12 849 25.07 -0.8 30.6 49 -10.2 13.7
01:25 1020 30.12 849 25.07 -0.8 30.6 49 -10.3 13.4
01:30 1020 30.12 849 25.07 -0.6 30.9 49 -10.1 13.8
01:35 1020 30.12 850 25.1 -0.7 30.7 50 -9.9 14.2
01:40 1020 30.12 850 25.1 -0.9 30.4 51 -9.9 14.2
01:45 1020 30.12 850 25.1 -1.1 29.9 54 -9.4 15.1
01:50 1020 30.12 850 25.1 -1.4 29.4 53 -9.9 14.2
01:55 1020 30.12 850 25.1 -1.2 29.9 51 -10 14.1
02:00 1020 30.12 850 25.1 -0.9 30.4 52 -9.7 14.6
02:05 1020 30.12 850 25.1 -0.9 30.5 52 -9.6 14.7
02:10 1020 30.12 850 25.1 -0.9 30.4 51 -9.8 14.4
02:15 1020 30.12 850 25.1 -0.9 30.4 51 -9.9 14.3
02:20 1020 30.12 850 25.1 -0.7 30.7 51 -9.7 14.5
02:25 1020 30.12 850 25.1 -0.7 30.8 50 -9.8 14.4
02:30 1020 30.12 849 25.07 -0.7 30.8 51 -9.6 14.8
02:35 1020 30.12 849 25.07 -0.6 30.9 50 -9.8 14.4
02:40 1020 30.12 849 25.07 -0.6 30.9 51 -9.7 14.6
02:45 1020 30.12 849 25.07 -0.6 30.9 50 -9.7 14.5
02:50 1020 30.12 849 25.07 -0.6 30.9 52 -9.4 15
02:55 1020 30.12 849 25.07 -0.8 30.5 52 -9.4 15.1
03:00 1020 30.12 849 25.07 -1 30.1 53 -9.4 15.1
03:05 1020 30.12 849 25.07 -1.2 29.8 54 -9.4 15.1
03:10 1020 30.12 849 25.07 -1.2 29.8 54 -9.3 15.2
03:15 1020 30.12 849 25.07 -1.4 29.5 54 -9.5 14.9
03:20 1020 30.12 849 25.07 -1.5 29.3 54 -9.6 14.7
03:25 1020 30.12 849 25.07 -1.6 29.1 55 -9.7 14.6
03:30 1020 30.12 849 25.07 -1.7 28.9 54 -9.8 14.4
03:35 1020 30.12 849 25.07 -1.8 28.9 55 -9.7 14.5
03:40 1020 30.12 849 25.07 -2 28.3 56 -9.6 14.6
03:45 1020 30.12 849 25.07 -2.3 27.9 57 -9.6 14.7
03:50 1020 30.12 849 25.07 -2.4 27.7 58 -9.6 14.8
03:55 1020 30.12 849 25.07 -2.5 27.6 58 -9.5 14.8
04:00 1020 30.12 849 25.07 -2.6 27.2 60 -9.4 15.1
04:05 1020 30.12 849 25.07 -2.8 27 61 -9.4 15.1
04:10 1020 30.12 849 25.07 -3 26.6 64 -8.9 16.1
04:15 1020 30.12 849 25.07 -3.3 26 67 -8.7 16.4
04:20 1019 30.09 849 25.07 -3.4 25.9 66 -8.8 16.2
04:25 1019 30.09 849 25.07 -3.4 25.8 67 -8.7 16.3
04:30 1019 30.09 849 25.07 -3.5 25.8 67 -8.7 16.3
04:35 1019 30.09 849 25.07 -3.3 26 64 -9.3 15.3
04:40 1019 30.09 849 25.07 -3.1 26.5 63 -9.1 15.7
04:45 1019 30.09 849 25.07 -3 26.6 64 -8.9 16.1
04:50 1019 30.09 848 25.04 -3.1 26.4 64 -8.9 15.9
04:55 1019 30.09 848 25.04 -3 26.6 63 -9 15.8
05:00 1019 30.09 848 25.04 -2.9 26.7 64 -8.8 16.1
05:05 1019 30.09 848 25.04 -2.9 26.8 62 -9.1 15.6
05:10 1019 30.09 848 25.04 -2.8 27 61 -9.3 15.3
05:15 1019 30.09 848 25.04 -3 26.6 62 -9.4 15.1
05:20 1019 30.09 848 25.04 -3.2 26.2 62 -9.5 15
05:25 1019 30.09 848 25.04 -3.4 25.9 62 -9.5 14.8
05:30 1019 30.09 848 25.04 -3.5 25.7 64 -9.4 15.1
05:35 1019 30.09 848 25.04 -3.7 25.3 64 -9.6 14.8
05:40 1019 30.09 848 25.04 -3.9 25 68 -8.9 15.9
05:45 1019 30.09 848 25.04 -4.2 24.5 69 -9.1 15.7
05:50 1019 30.09 848 25.04 -4.3 24.3 67 -9.5 14.8
05:55 1019 30.09 848 25.04 -4 24.7 66 -9.5 14.8
06:00 1019 30.09 848 25.04 -4 24.8 66 -9.4 15.1
06:05 1018 30.06 848 25.04 -4.1 24.7 66 -9.4 15.1
06:10 1018 30.06 848 25.04 -4.2 24.4 68 -9.3 15.2
06:15 1018 30.06 848 25.04 -4.4 24 69 -9.2 15.4
06:20 1018 30.06 847 25.01 -4.6 23.7 70 -9.3 15.2
06:25 1018 30.06 847 25.01 -4.7 23.6 70 -9.4 15.1
06:30 1018 30.06 847 25.01 -4.6 23.7 69 -9.4 15.1
06:35 1018 30.06 847 25.01 -4.4 24 67 -9.6 14.7
06:40 1018 30.06 847 25.01 -4.2 24.4 67 -9.5 15
06:45 1018 30.06 847 25.01 -4.2 24.4 67 -9.5 14.9
06:50 1018 30.06 847 25.01 -4.3 24.3 67 -9.5 14.9
06:55 1018 30.06 847 25.01 -4.2 24.5 66 -9.5 14.8
07:00 1018 30.06 847 25.01 -3.9 24.9 65 -9.5 14.8
07:05 1018 30.06 847 25.01 -3.5 25.7 63 -9.4 15
07:10 1018 30.06 848 25.04 -3.2 26.2 62 -9.5 14.9
07:15 1018 30.06 848 25.04 -2.9 26.7 62 -9.3 15.3
07:20 1018 30.06 848 25.04 -2.8 26.9 60 -9.5 15
07:25 1018 30.06 848 25.04 -2.7 27.1 60 -9.4 15.1
07:30 1018 30.06 848 25.04 -2.4 27.6 58 -9.5 14.9
07:35 1018 30.06 848 25.04 -2 28.4 59 -9 15.7
07:40 1019 30.09 848 25.04 -1.6 29.1 56 -9.4 15.2
07:45 1019 30.09 848 25.04 -1.3 29.6 54 -9.4 15.1
07:50 1019 30.09 848 25.04 -1 30.2 53 -9.4 15.1
07:55 1019 30.09 848 25.04 -0.3 31.4 51 -9.2 15.4
08:00 1018 30.06 848 25.04 -0.6 30.9 53 -9 15.9
08:05 1018 30.06 848 25.04 -0.9 30.4 54 -9.1 15.7
08:10 1018 30.06 848 25.04 -0.4 31.3 52 -9.2 15.5
08:15 1018 30.06 848 25.04 -0.1 31.8 51 -9 15.9
08:20 1018 30.06 848 25.04 -0.1 31.8 51 -9.1 15.6
08:25 1018 30.06 848 25.04 0.4 32.7 50 -8.8 16.1
08:30 1018 30.06 848 25.04 1.1 33.9 46 -9.4 15.1
08:35 1018 30.06 848 25.04 1.6 34.9 45 -9.1 15.6
08:40 1018 30.06 848 25.04 0.8 33.5 47 -9.4 15.2
08:45 1018 30.06 848 25.04 0.6 33.1 42 -10.7 12.7
08:50 1018 30.06 847 25.01 1.6 34.9 41 -10.3 13.5
08:55 1018 30.06 847 25.01 1.2 34.1 44 -9.6 14.6
09:00 1018 30.06 847 25.01 1.1 34.1 43 -10 14
09:05 1018 30.06 847 25.01 1 33.8 45 -9.7 14.5
09:10 1018 30.06 847 25.01 0.9 33.6 46 -9.6 14.7
09:15 1018 30.06 847 25.01 0.3 32.6 45 -10.1 13.8
09:20 1018 30.06 847 25.01 1.1 34 44 -9.7 14.6
09:25 1018 30.06 847 25.01 1.7 35 44 -9.3 15.3
09:30 1018 30.06 847 25.01 2.5 36.5 41 -9.5 15
09:35 1018 30.06 847 25.01 3.2 37.7 39 -9.4 15
09:40 1018 30.06 847 25.01 3.4 38.1 41 -8.7 16.4
09:45 1018 30.06 847 25.01 3 37.4 41 -9.1 15.6
09:50 1017 30.03 847 25.01 2.9 37.2 41 -9 15.9
09:55 1017 30.03 847 25.01 2.6 36.7 41 -9.4 15
10:00 1017 30.03 847 25.01 3.3 38 39 -9.5 14.9
10:05 1017 30.03 846 24.98 4 39.3 38 -9.1 15.6
10:10 1017 30.03 846 24.98 4 39.2 39 -8.7 16.4
10:15 1017 30.03 846 24.98 3.5 38.3 38 -9.5 14.9
10:20 1017 30.03 846 24.98 3.2 37.7 39 -9.6 14.7
10:25 1017 30.03 846 24.98 3.4 38 39 -9.3 15.3
10:30 1017 30.03 846 24.98 2.7 36.9 37 -10.7 12.7
10:35 1017 30.03 846 24.98 4.1 39.4 33 -11 12.3
10:40 1017 30.03 846 24.98 4.4 39.8 32 -10.9 12.4
10:45 1017 30.03 846 24.98 3.8 38.8 33 -11 12.2
10:50 1017 30.03 846 24.98 3.8 38.9 37 -9.5 14.8
10:55 1017 30.03 846 24.98 2.8 37 36 -10.8 12.5
11:00 1017 30.03 846 24.98 2.2 36 37 -10.9 12.3
11:05 1017 30.03 846 24.98 2.7 36.9 35 -11.1 12
11:10 1017 30.03 846 24.98 4 39.1 35 -10.2 13.6
11:15 1017 30.03 846 24.98 3.7 38.6 35 -10.6 12.9
11:20 1017 30.03 846 24.98 4.3 39.8 33 -10.8 12.6
11:25 1016 30 846 24.98 5 41.1 31 -10.6 13
11:30 1016 30 846 24.98 5.2 41.3 30 -10.9 12.5
11:35 1016 30 846 24.98 4.8 40.6 32 -10.6 13
11:40 1016 30 846 24.98 4.3 39.8 32 -10.8 12.5
11:45 1016 30 846 24.98 4.3 39.8 32 -10.8 12.6
11:50 1016 30 845 24.95 5 41 30 -11.3 11.7
11:55 1016 30 845 24.95 5.5 41.8 30 -10.6 13
12:00 1016 30 845 24.95 5.6 42.1 28 -11.5 11.3
12:05 1016 30 845 24.95 4.7 40.4 30 -11.4 11.5
12:10 1016 30 845 24.95 5.3 41.5 29 -11.3 11.7
12:15 1016 30 845 24.95 5.5 42 30 -10.6 13
12:20 1016 30 845 24.95 4.9 40.8 31 -11 12.2
12:25 1016 30 845 24.95 5.2 41.4 30 -11 12.3
12:30 1016 30 845 24.95 5.5 42 29 -11 12.2
12:35 1016 30 845 24.95 5.1 41.1 31 -10.6 12.8
12:40 1016 30 845 24.95 5.2 41.4 30 -11.1 12.1
12:45 1016 30 845 24.95 5.6 42 28 -11.7 11
12:50 1015 29.97 845 24.95 5.8 42.5 31 -10.1 13.8
12:55 1015 29.97 845 24.95 5.7 42.2 31 -10.2 13.7
13:00 1015 29.97 844 24.92 5.4 41.6 30 -10.8 12.5
13:05 1015 29.97 844 24.92 5.6 42.1 31 -10.1 13.8
13:10 1015 29.97 844 24.92 5.6 42.1 31 -10.3 13.5
13:15 1015 29.97 844 24.92 4.9 40.9 32 -10.5 13
13:20 1015 29.97 844 24.92 5 41 31 -11 12.2
13:25 1015 29.97 844 24.92 5.9 42.5 28 -11.4 11.5
13:30 1015 29.97 844 24.92 6.4 43.6 27 -11.1 12
13:35 1015 29.97 844 24.92 5.6 42 31 -10.4 13.2
13:40 1015 29.97 844 24.92 5.8 42.5 29 -10.7 12.8
13:45 1015 29.97 844 24.92 6.3 43.3 30 -10.3 13.5
13:50 1015 29.97 844 24.92 6.5 43.7 27 -11.1 12.1
13:55 1015 29.97 844 24.92 6.4 43.5 26 -11.6 11.1
14:00 1014 29.94 844 24.92 6.9 44.3 26 -11.2 11.8
14:05 1014 29.94 844 24.92 5.9 42.6 28 -11.2 11.9
14:10 1014 29.94 844 24.92 6 42.7 29 -11 12.3
14:15 1014 29.94 843 24.89 6.1 43 28 -11 12.3
14:20 1014 29.94 843 24.89 5.4 41.7 30 -10.8 12.6
14:25 1014 29.94 843 24.89 5.6 42.1 29 -11.3 11.7
14:30 1014 29.94 843 24.89 6.1 43 30 -10.4 13.3
14:35 1014 29.94 843 24.89 5.7 42.2 29 -11.1 12
14:40 1014 29.94 843 24.89 5.2 41.3 29 -11.4 11.4
14:45 1014 29.94 843 24.89 5.6 42.1 30 -10.8 12.6
14:50 1014 29.94 843 24.89 6.2 43.2 30 -10.3 13.5
14:55 1014 29.94 843 24.89 4.9 40.9 32 -10.3 13.5
15:00 1014 29.94 843 24.89 4.6 40.2 32 -10.7 12.7
15:05 1014 29.94 843 24.89 4.7 40.5 32 -10.7 12.8
15:10 1014 29.94 843 24.89 4.6 40.2 32 -10.7 12.7
15:15 1014 29.94 843 24.89 4.9 40.8 33 -10.2 13.7
15:20 1014 29.94 843 24.89 5 41 33 -10 14.1
15:25 1014 29.94 843 24.89 4.9 40.8 31 -11 12.2
15:30 1014 29.94 843 24.89 5.3 41.5 30 -11 12.1
15:35 1014 29.94 843 24.89 5.3 41.5 31 -10.6 12.9
15:40 1014 29.94 843 24.89 5 40.9 32 -10.5 13.1
15:45 1014 29.94 843 24.89 5.1 41.2 32 -10.5 13.2
15:50 1014 29.94 843 24.89 5 41.1 32 -10.2 13.6
15:55 1014 29.94 843 24.89 4.9 40.7 34 -9.9 14.2
16:00 1014 29.94 843 24.89 4.6 40.2 35 -9.8 14.4
16:05 1014 29.94 843 24.89 4.7 40.5 36 -9.1 15.6
16:10 1014 29.94 843 24.89 4.5 40.2 37 -9 15.8
16:15 1014 29.94 843 24.89 4.3 39.7 43 -7.2 19.1
16:20 1014 29.94 843 24.89 3.9 39.1 47 -6.5 20.4
16:25 1014 29.94 843 24.89 3.8 38.8 48 -6.3 20.6
16:30 1014 29.94 843 24.89 3.8 38.8 48 -6.3 20.6
16:35 1014 29.94 843 24.89 3.9 39 48 -6.2 20.9
16:40 1014 29.94 843 24.89 3.8 38.9 49 -6 21.2
16:45 1014 29.94 843 24.89 3.8 38.8 51 -5.5 22.1
16:50 1014 29.94 843 24.89 3.7 38.6 53 -4.9 23.2
16:55 1014 29.94 843 24.89 3.1 37.7 58 -4.3 24.3
17:00 1014 29.94 843 24.89 2.6 36.6 67 -3 26.6
17:05 1014 29.94 843 24.89 2.2 36 70 -2.6 27.2
17:10 1014 29.94 843 24.89 1.8 35.3 75 -2.2 28.1
17:15 1014 29.94 843 24.89 1.6 34.9 77 -1.9 28.5
17:20 1014 29.94 843 24.89 1.5 34.8 78 -1.8 28.7
17:25 1014 29.94 843 24.89 1.8 35.3 75 -2.1 28.3
17:30 1014 29.94 843 24.89 2.1 35.8 77 -1.6 29.1
17:35 1014 29.94 843 24.89 1.9 35.4 76 -1.9 28.5
17:40 1014 29.94 843 24.89 1.7 35.1 80 -1.3 29.7
17:45 1014 29.94 843 24.89 1.8 35.2 79 -1.5 29.2
17:50 1014 29.94 843 24.89 1.7 35.1 78 -1.7 28.9
17:55 1014 29.94 843 24.89 1.9 35.4 81 -1 30.2
18:00 1014 29.94 843 24.89 1.7 35 84 -0.7 30.7
18:05 1014 29.94 843 24.89 1.3 34.3 85 -1 30.2
18:10 1014 29.94 843 24.89 1.2 34.1 87 -0.8 30.5
18:15 1014 29.94 843 24.89 1 33.7 88 -0.8 30.6
18:20 1014 29.94 844 24.92 0.9 33.6 89 -0.7 30.7
18:25 1014 29.94 843 24.89 0.6 33.2 91 -0.7 30.7
18:30 1014 29.94 844 24.92 0.7 33.2 89 -1 30.2
18:35 1014 29.94 844 24.92 0.6 33.1 89 -1 30.2
18:40 1014 29.94 843 24.89 0.5 33 88 -1.3 29.7
18:45 1014 29.94 843 24.89 0.5 32.9 89 -1.2 29.9
18:50 1014 29.94 843 24.89 0.4 32.7 89 -1.2 29.8
18:55 1014 29.94 843 24.89 0.2 32.4 89 -1.4 29.4
19:00 1014 29.94 843 24.89 0 32 91 -1.2 29.8
19:05 1014 29.94 843 24.89 -0.2 31.7 93 -1.1 29.9
19:10 1014 29.94 843 24.89 -0.1 31.8 94 -0.9 30.3
19:15 1014 29.94 843 24.89 -0.2 31.7 94 -1 30.2
19:20 1014 29.94 843 24.89 -0.3 31.5 94 -1.1 30
19:25 1014 29.94 843 24.89 -0.4 31.3 95 -1.1 30
19:30 1014 29.94 843 24.89 -0.4 31.2 95 -1.1 30
19:35 1014 29.94 843 24.89 -0.4 31.2 95 -1.2 29.9
19:40 1014 29.94 843 24.89 -0.4 31.3 95 -1.1 30
19:45 1014 29.94 843 24.89 -0.3 31.4 95 -1.1 30
19:50 1014 29.94 843 24.89 -0.3 31.4 92 -1.5 29.3
19:55 1014 29.94 843 24.89 -0.4 31.2 90 -1.8 28.7
20:00 1014 29.94 843 24.89 -0.5 31.2 90 -1.8 28.7
20:05 1014 29.94 843 24.89 -0.5 31.1 91 -1.8 28.8
20:10 1014 29.94 843 24.89 -0.5 31.1 92 -1.7 29
20:15 1014 29.94 843 24.89 -0.5 31 93 -1.6 29.2
20:20 1014 29.94 843 24.89 -0.7 30.7 93 -1.7 29
20:25 1014 29.94 843 24.89 -0.9 30.3 94 -1.8 28.8
20:30 1014 29.94 843 24.89 -1 30.2 94 -1.8 28.7
20:35 1014 29.94 843 24.89 -1.1 30 94 -2 28.4
20:40 1014 29.94 843 24.89 -1.3 29.8 93 -2.3 27.8
20:45 1014 29.94 843 24.89 -1.3 29.6 93 -2.4 27.7
20:50 1014 29.94 843 24.89 -1.4 29.5 93 -2.4 27.6
20:55 1014 29.94 843 24.89 -1.5 29.3 93 -2.5 27.6
21:00 1014 29.94 843 24.89 -1.6 29.2 94 -2.4 27.6
21:05 1014 29.94 843 24.89 -1.6 29.2 93 -2.6 27.4
21:10 1014 29.94 843 24.89 -1.6 29.2 93 -2.5 27.5
21:15 1014 29.94 843 24.89 -1.6 29.1 93 -2.6 27.3
21:20 1014 29.94 843 24.89 -1.6 29.2 94 -2.5 27.5
21:25 1014 29.94 843 24.89 -1.6 29.2 94 -2.4 27.7
21:30 1014 29.94 843 24.89 -1.6 29.1 95 -2.3 27.8
21:35 1014 29.94 843 24.89 -1.6 29 95 -2.4 27.7
21:40 1014 29.94 843 24.89 -1.6 29 94 -2.5 27.5
21:45 1014 29.94 843 24.89 -1.6 29 93 -2.7 27.2
21:50 1014 29.94 843 24.89 -1.6 29.1 92 -2.8 27
21:55 1014 29.94 843 24.89 -1.5 29.2 89 -3.1 26.4
22:00 1014 29.94 843 24.89 -1.4 29.4 86 -3.4 25.9
22:05 1014 29.94 843 24.89 -1.3 29.6 85 -3.6 25.6
22:10 1014 29.94 843 24.89 -1.4 29.5 85 -3.6 25.5
22:15 1014 29.94 843 24.89 -1.6 29.2 88 -3.4 25.9
22:20 1014 29.94 843 24.89 -1.8 28.7 89 -3.5 25.7
22:25 1014 29.94 843 24.89 -1.8 28.7 86 -3.9 25.1
22:30 1014 29.94 843 24.89 -1.8 28.8 86 -3.8 25.1
22:35 1014 29.94 843 24.89 -1.9 28.6 88 -3.6 25.5
22:40 1014 29.94 843 24.89 -1.9 28.5 87 -3.8 25.2
22:45 1014 29.94 843 24.89 -1.9 28.5 87 -3.9 25
22:50 1014 29.94 843 24.89 -2 28.4 88 -3.7 25.3
22:55 1014 29.94 843 24.89 -2.1 28.2 90 -3.5 25.7
23:00 1014 29.94 843 24.89 -2.3 27.8 93 -3.3 26.1
23:05 1014 29.94 843 24.89 -2.5 27.6 94 -3.3 26
23:10 1014 29.94 843 24.89 -2.5 27.4 94 -3.4 25.9
23:15 1014 29.94 843 24.89 -2.5 27.5 92 -3.6 25.6
23:20 1014 29.94 843 24.89 -2.4 27.6 91 -3.6 25.5
23:25 1014 29.94 843 24.89 -2.4 27.8 89 -4 24.8
23:30 1014 29.94 843 24.89 -2.2 28.1 89 -3.8 25.1
23:35 1014 29.94 843 24.89 -2.4 27.7 92 -3.5 25.7
23:40 1014 29.94 843 24.89 -2.6 27.4 92 -3.6 25.5
23:45 1014 29.94 843 24.89 -2.6 27.4 93 -3.6 25.5
23:50 1014 29.94 843 24.89 -2.6 27.3 91 -3.8 25.1
23:55 1014 29.94 843 24.89 -2.6 27.3 91 -3.9 25.1
24:00 1014 29.94 843 24.89 -2.6 27.3 91 -3.8 25.2